Time;durP1;ratioP1;P1;durP2;ratioP2;P2;SDS_P1;SDS_P2;PMS_P1;PMS_P2;Temp;Humidity;BMP_temperature;BMP_pressure;BME280_temperature;BME280_humidity;BME280_pressure;Samples;Min_cycle;Max_cycle;Signal;HPM_P1;HPM_P2
2022/01/06 09:22:55;;;;;;;8.63;4.93;;;-0.20;99.90;;;;;;5174252;27;21040;-75
2022/01/06 09:25:20;;;;;;;4.87;2.70;;;-0.20;99.90;;;;;;5153151;27;20264;-76
2022/01/06 09:27:46;;;;;;;33.43;23.23;;;0.00;99.90;;;;;;5130914;27;20304;-76
2022/01/06 09:30:12;;;;;;;18.47;8.73;;;0.00;99.90;;;;;;5132135;28;20177;-76
2022/01/06 09:32:40;;;;;;;6.50;3.00;;;0.10;99.90;;;;;;5114286;28;20179;-76
2022/01/06 09:35:06;;;;;;;6.30;3.03;;;0.50;99.90;;;;;;5132776;28;20194;-76
2022/01/06 09:37:32;;;;;;;7.10;3.30;;;0.80;99.90;;;;;;5113480;27;20213;-76
2022/01/06 09:39:57;;;;;;;4.37;2.70;;;0.90;99.90;;;;;;5113353;28;20184;-76
2022/01/06 09:42:23;;;;;;;12.13;6.17;;;0.80;99.90;;;;;;5131640;28;20263;-76
2022/01/06 09:44:50;;;;;;;25.73;11.67;;;1.00;99.90;;;;;;5131736;28;20173;-76
2022/01/06 09:47:17;;;;;;;12.93;5.20;;;0.90;99.90;;;;;;5113191;28;20248;-76
2022/01/06 09:49:44;;;;;;;20.67;11.77;;;0.90;99.90;;;;;;5131393;27;20688;-76
2022/01/06 09:52:12;;;;;;;36.53;22.17;;;0.80;99.90;;;;;;5096185;28;20186;-76
2022/01/06 09:54:39;;;;;;;3.93;2.10;;;0.70;99.90;;;;;;5131647;28;20185;-76
2022/01/06 09:57:06;;;;;;;4.07;1.80;;;0.60;99.90;;;;;;5113046;28;20196;-76
2022/01/06 09:59:32;;;;;;;2.93;2.07;;;0.70;99.90;;;;;;5133428;27;20232;-76
2022/01/06 10:01:59;;;;;;;4.70;2.50;;;0.60;99.90;;;;;;5112834;28;20207;-76
2022/01/06 10:04:29;;;;;;;3.10;1.67;;;0.50;99.90;;;;;;5112797;28;20216;-76
2022/01/06 10:07:00;;;;;;;3.90;3.13;;;0.60;99.90;;;;;;5112982;28;20200;-76
2022/01/06 10:09:26;;;;;;;5.80;2.97;;;0.40;99.90;;;;;;5130857;27;20200;-76
2022/01/06 10:11:56;;;;;;;2.07;1.60;;;0.50;99.90;;;;;;5113195;28;20201;-76
2022/01/06 10:14:30;;;;;;;18.90;7.00;;;0.50;99.90;;;;;;5112744;28;20205;-76
2022/01/06 10:16:57;;;;;;;9.13;4.70;;;0.50;99.90;;;;;;5112675;28;20586;-76
2022/01/06 10:19:23;;;;;;;4.33;2.57;;;0.50;99.90;;;;;;5112583;28;20241;-76
2022/01/06 10:21:56;;;;;;;12.27;7.67;;;0.50;99.90;;;;;;5130707;28;20574;-77
2022/01/06 10:24:24;;;;;;;6.70;3.43;;;0.60;99.90;;;;;;5131217;28;20633;-76
2022/01/06 10:26:58;;;;;;;7.53;2.63;;;0.60;99.90;;;;;;5112457;28;20641;-76
2022/01/06 10:29:26;;;;;;;3.90;2.47;;;0.50;99.90;;;;;;5130699;27;20189;-76
2022/01/06 10:32:14;;;;;;;5.13;3.50;;;0.60;99.90;;;;;;5130644;28;20267;-76
2022/01/06 10:34:42;;;;;;;4.17;1.93;;;0.60;99.90;;;;;;5116170;28;20271;-76
2022/01/06 10:37:22;;;;;;;2.10;1.90;;;0.80;99.90;;;;;;5098756;28;20529;-76
2022/01/06 10:39:51;;;;;;;3.43;1.73;;;0.70;99.90;;;;;;5098682;28;20183;-78
2022/01/06 10:42:20;;;;;;;4.93;2.13;;;0.60;99.90;;;;;;5098282;28;20197;-76
2022/01/06 10:44:51;;;;;;;13.40;6.53;;;0.80;99.90;;;;;;5116913;28;20181;-76
2022/01/06 10:47:34;;;;;;;65.77;26.43;;;0.90;99.90;;;;;;5116958;28;20205;-76
2022/01/06 10:50:24;;;;;;;23.17;8.67;;;0.90;99.90;;;;;;5098420;28;20308;-76
2022/01/06 10:53:08;;;;;;;12.50;5.43;;;0.70;99.90;;;;;;5116691;28;20171;-76
2022/01/06 10:55:43;;;;;;;4.10;2.80;;;0.70;99.90;;;;;;5116659;28;20169;-77
2022/01/06 10:58:11;;;;;;;5.27;2.87;;;0.90;99.90;;;;;;5098278;28;20208;-77
2022/01/06 11:00:42;;;;;;;3.80;2.70;;;0.90;99.90;;;;;;5116306;28;20630;-76
2022/01/06 11:03:29;;;;;;;7.47;4.63;;;0.90;99.90;;;;;;5108593;28;20184;-76
2022/01/06 11:05:58;;;;;;;5.83;2.87;;;1.10;99.90;;;;;;5096058;28;20555;-77
2022/01/06 11:08:27;;;;;;;7.73;4.47;;;1.20;99.90;;;;;;5077607;28;20235;-77
2022/01/06 11:13:33;;;;;;;2.97;2.00;;;1.20;99.90;;;;;;5096069;28;20615;-77
2022/01/06 11:15:59;;;;;;;4.23;2.30;;;1.10;99.90;;;;;;5106502;28;20185;-77
2022/01/06 11:18:25;;;;;;;8.17;2.37;;;1.00;99.90;;;;;;5096051;28;20208;-77
2022/01/06 11:21:00;;;;;;;3.53;1.83;;;1.00;99.90;;;;;;5077509;28;20748;-77
2022/01/06 11:23:26;;;;;;;3.10;2.23;;;0.90;99.90;;;;;;5095738;28;20157;-77
2022/01/06 11:26:16;;;;;;;2.77;2.03;;;0.80;99.90;;;;;;5095823;28;20177;-77
2022/01/06 11:28:52;;;;;;;7.30;4.50;;;0.80;99.90;;;;;;5096070;28;20253;-78
2022/01/06 11:31:23;;;;;;;4.13;2.93;;;1.00;99.90;;;;;;5095613;28;20173;-77
2022/01/06 11:33:50;;;;;;;5.20;2.80;;;1.10;99.90;;;;;;5077654;28;20180;-77
2022/01/06 11:36:30;;;;;;;10.40;5.17;;;1.20;99.90;;;;;;5077646;28;20182;-77
2022/01/06 11:38:57;;;;;;;9.57;3.83;;;1.10;99.90;;;;;;5095782;28;20215;-77
2022/01/06 11:41:40;;;;;;;4.90;2.27;;;1.20;99.90;;;;;;5077205;28;20251;-77
2022/01/06 11:44:21;;;;;;;4.10;2.23;;;1.10;99.90;;;;;;5094812;28;20172;-77
2022/01/06 11:46:49;;;;;;;4.63;2.37;;;1.30;99.90;;;;;;5077622;28;20252;-77
2022/01/06 11:49:15;;;;;;;3.20;2.67;;;1.80;99.90;;;;;;5077700;28;20199;-77
2022/01/06 11:51:42;;;;;;;3.00;2.30;;;2.30;99.90;;;;;;5078249;28;20177;-77
2022/01/06 11:54:26;;;;;;;3.63;1.93;;;3.50;99.90;;;;;;5096914;28;20174;-77
2022/01/06 11:56:52;;;;;;;4.00;2.00;;;4.10;99.90;;;;;;5079867;28;20209;-78
2022/01/06 11:59:32;;;;;;;4.13;2.60;;;3.90;99.90;;;;;;5096901;28;20213;-78
2022/01/06 12:02:00;;;;;;;5.20;2.70;;;3.40;99.90;;;;;;5096192;28;20196;-78
2022/01/06 12:04:26;;;;;;;6.30;3.07;;;2.60;99.90;;;;;;5096944;28;20170;-78
2022/01/06 12:07:04;;;;;;;13.93;4.47;;;2.10;99.90;;;;;;5097572;28;20181;-77
2022/01/06 12:09:29;;;;;;;18.40;8.00;;;2.10;99.90;;;;;;5095091;28;20674;-77
2022/01/06 12:12:11;;;;;;;15.10;6.67;;;2.00;99.90;;;;;;5095011;28;20268;-77
2022/01/06 12:14:37;;;;;;;10.90;4.90;;;1.90;99.90;;;;;;5094993;28;20654;-77
2022/01/06 12:17:08;;;;;;;62.00;20.27;;;1.80;99.90;;;;;;5095210;28;20210;-78
2022/01/06 12:19:35;;;;;;;29.13;12.07;;;1.60;99.90;;;;;;5095698;28;20202;-78
2022/01/06 12:22:01;;;;;;;54.27;21.07;;;1.80;99.90;;;;;;5077487;28;20210;-78
2022/01/06 12:24:27;;;;;;;28.67;11.67;;;1.50;99.90;;;;;;5079829;28;20190;-78
2022/01/06 12:26:54;;;;;;;49.57;17.93;;;1.40;99.90;;;;;;5101677;28;20174;-77
2022/01/06 12:29:26;;;;;;;66.57;23.03;;;1.40;99.90;;;;;;5080408;28;20196;-77
2022/01/06 12:32:02;;;;;;;48.80;17.80;;;1.50;99.90;;;;;;5099702;28;20177;-77
2022/01/06 12:34:28;;;;;;;6.23;2.60;;;1.20;99.90;;;;;;5095887;28;20187;-77
2022/01/06 12:36:53;;;;;;;4.83;2.70;;;1.40;99.90;;;;;;5095763;28;20707;-77
2022/01/06 12:39:22;;;;;;;5.80;2.73;;;1.30;99.90;;;;;;5076651;28;20678;-77
2022/01/06 12:41:50;;;;;;;5.50;2.73;;;1.30;99.90;;;;;;5094394;28;20207;-77
2022/01/06 12:44:19;;;;;;;4.33;2.23;;;1.20;99.90;;;;;;5095283;28;20184;-77
2022/01/06 12:46:45;;;;;;;18.47;14.20;;;1.10;99.90;;;;;;5095023;28;20178;-77
2022/01/06 12:49:12;;;;;;;9.37;4.53;;;1.10;99.90;;;;;;5076608;28;20196;-77
2022/01/06 12:51:40;;;;;;;55.40;44.20;;;1.10;99.90;;;;;;5076608;28;20542;-77
2022/01/06 12:54:13;;;;;;;9.47;5.70;;;1.00;99.90;;;;;;5076290;28;20550;-77
2022/01/06 12:56:44;;;;;;;7.90;3.00;;;1.10;99.90;;;;;;5076167;28;20230;-77
2022/01/06 12:59:41;;;;;;;6.00;3.47;;;1.10;99.90;;;;;;5094173;28;20537;-77
2022/01/06 13:02:11;;;;;;;9.93;6.00;;;1.20;99.90;;;;;;5094198;28;20646;-77
2022/01/06 13:04:43;;;;;;;14.60;8.77;;;0.90;99.90;;;;;;5094129;28;20168;-77
2022/01/06 13:07:14;;;;;;;9.83;5.00;;;1.00;99.90;;;;;;5094624;28;20159;-77
2022/01/06 13:09:40;;;;;;;9.93;6.83;;;1.00;99.90;;;;;;5076609;28;20201;-77
2022/01/06 13:12:26;;;;;;;8.00;4.43;;;1.00;99.90;;;;;;5094713;28;20631;-77
2022/01/06 13:14:52;;;;;;;4.60;2.03;;;1.00;99.90;;;;;;5076773;28;20577;-77
2022/01/06 13:17:31;;;;;;;70.20;36.07;;;0.90;99.90;;;;;;5075842;28;20189;-77
2022/01/06 13:20:05;;;;;;;51.17;25.70;;;0.90;99.90;;;;;;5075956;28;20288;-77
2022/01/06 13:25:21;;;;;;;21.33;7.30;;;1.10;99.90;;;;;;5094521;28;20733;-77
2022/01/06 13:28:06;;;;;;;5.77;3.77;;;1.30;99.90;;;;;;5093731;28;20247;-77
2022/01/06 13:30:47;;;;;;;8.60;5.40;;;1.30;99.90;;;;;;5075465;28;20266;-77
2022/01/06 13:33:15;;;;;;;6.67;2.90;;;1.40;99.90;;;;;;5093813;28;20166;-77
2022/01/06 13:36:02;;;;;;;5.60;4.07;;;1.40;99.90;;;;;;5075846;28;20182;-77
2022/01/06 13:38:30;;;;;;;14.83;7.83;;;1.40;99.90;;;;;;5075639;28;20201;-77
2022/01/06 13:40:59;;;;;;;14.67;7.57;;;1.40;99.90;;;;;;5075434;28;20207;-77
2022/01/06 13:43:26;;;;;;;13.13;7.00;;;1.50;99.90;;;;;;5094106;28;20300;-77
2022/01/06 13:45:52;;;;;;;4.87;2.83;;;1.50;99.90;;;;;;5075672;28;20188;-78
2022/01/06 13:51:08;;;;;;;3.80;2.37;;;2.70;99.90;;;;;;5093565;28;20219;-77
2022/01/06 13:53:42;;;;;;;11.63;6.10;;;1.40;99.90;;;;;;5093707;28;20168;-77
2022/01/06 13:56:35;;;;;;;17.63;7.00;;;1.50;99.90;;;;;;5075619;28;20622;-77
2022/01/06 13:59:14;;;;;;;5.20;2.07;;;1.40;99.90;;;;;;5093522;28;20640;-77
2022/01/06 14:01:45;;;;;;;8.37;3.90;;;1.10;99.90;;;;;;5075196;28;20255;-77
2022/01/06 14:04:19;;;;;;;7.83;3.00;;;1.10;99.90;;;;;;5093677;28;20611;-78
2022/01/06 14:06:45;;;;;;;6.83;2.20;;;1.10;99.90;;;;;;5093797;28;20530;-77
2022/01/06 14:09:11;;;;;;;55.27;24.10;;;1.10;99.90;;;;;;5097453;28;20193;-77
2022/01/06 14:11:37;;;;;;;34.73;18.00;;;1.00;99.90;;;;;;5100659;28;20252;-78
2022/01/06 14:14:03;;;;;;;10.60;3.87;;;1.10;99.90;;;;;;5098762;28;20180;-77
2022/01/06 14:16:29;;;;;;;8.10;3.17;;;1.10;99.90;;;;;;5098451;28;20182;-77
2022/01/06 14:18:55;;;;;;;8.77;3.10;;;1.10;99.90;;;;;;5079750;28;20613;-77
2022/01/06 14:21:20;;;;;;;7.73;3.10;;;1.10;99.90;;;;;;5097943;28;20251;-77
2022/01/06 14:23:46;;;;;;;14.80;10.30;;;0.90;99.90;;;;;;5097446;28;20560;-77
2022/01/06 14:26:12;;;;;;;5.27;3.73;;;0.80;99.90;;;;;;5097543;28;20168;-77
2022/01/06 14:28:38;;;;;;;23.97;13.00;;;0.70;99.90;;;;;;5097367;28;20199;-77
2022/01/06 14:31:06;;;;;;;17.20;8.00;;;0.60;99.90;;;;;;5097320;28;20646;-77
2022/01/06 14:33:37;;;;;;;16.23;8.47;;;0.60;99.90;;;;;;5079262;28;20454;-77
2022/01/06 14:36:05;;;;;;;8.23;4.80;;;0.60;99.90;;;;;;5097132;28;20401;-77
2022/01/06 14:38:30;;;;;;;6.17;3.87;;;0.60;99.90;;;;;;5078713;28;20208;-77
2022/01/06 14:40:56;;;;;;;8.17;3.50;;;0.60;99.90;;;;;;5078293;28;20556;-77
2022/01/06 14:43:22;;;;;;;8.60;6.57;;;0.60;99.90;;;;;;5096785;28;20179;-77
2022/01/06 14:45:48;;;;;;;14.03;12.60;;;0.50;99.90;;;;;;5096912;28;20283;-77
2022/01/06 14:48:14;;;;;;;6.63;3.30;;;0.40;99.90;;;;;;5097195;28;20196;-77
2022/01/06 14:50:39;;;;;;;10.63;7.13;;;0.40;99.90;;;;;;5078089;28;20229;-77
2022/01/06 14:53:05;;;;;;;9.57;6.00;;;0.50;99.90;;;;;;5097152;28;20540;-77
2022/01/06 14:55:31;;;;;;;5.57;4.73;;;0.40;99.90;;;;;;5078169;28;20172;-76
2022/01/06 14:57:57;;;;;;;5.70;3.30;;;0.30;99.90;;;;;;5096557;28;20729;-77
2022/01/06 15:00:25;;;;;;;10.63;4.27;;;0.30;99.90;;;;;;5077808;28;20183;-76
2022/01/06 15:02:52;;;;;;;8.23;4.47;;;0.30;99.90;;;;;;5076318;28;20670;-76
2022/01/06 15:05:20;;;;;;;10.80;5.27;;;0.20;99.90;;;;;;5094938;28;20436;-76
2022/01/06 15:07:46;;;;;;;10.53;5.37;;;;;;;;;;5095896;28;20941;-76
2022/01/06 15:10:12;;;;;;;15.30;9.23;;;;;;;;;;5096197;28;20405;-76
2022/01/06 15:12:39;;;;;;;6.80;4.30;;;0.10;99.90;;;;;;5096089;28;20481;-76
2022/01/06 15:15:07;;;;;;;22.70;9.37;;;0.00;99.90;;;;;;5077732;28;20950;-76
2022/01/06 15:17:33;;;;;;;32.67;15.97;;;;;;;;;;5095670;28;20505;-76
2022/01/06 15:19:59;;;;;;;36.53;18.67;;;;;;;;;;5096079;28;20406;-76
2022/01/06 15:22:24;;;;;;;43.30;20.50;;;0.00;99.90;;;;;;5077296;28;20470;-76
2022/01/06 15:24:50;;;;;;;14.70;8.97;;;1.20;99.90;;;;;;5095713;28;20179;-76
2022/01/06 15:27:16;;;;;;;10.30;7.03;;;1.90;99.90;;;;;;5095713;28;20255;-77
2022/01/06 15:29:42;;;;;;;17.07;8.87;;;;;;;;;;5095570;28;20572;-76
2022/01/06 15:32:08;;;;;;;35.40;15.57;;;-0.20;99.90;;;;;;5043539;28;20221;-76
